Portada
METAR-TAF:

METAR-TAF

Aeroports :

Castries, Saint Lucia

latitud: 14-01N, longitud: 061-00W, altitud: 2 m

Observació

L'informe es va fer fa 1 hora i 45 minuts, a les 13:00 UTC
Vent 7 kt del Est/Sud-Est
Temperatura 29°C
Humitat 79%
Pressió 1013 hPa
Visibilitat 10 km o més
Escasses núvols a una alçada de 2500 ft

METAR: TLPC 131300Z 12007KT 9999 FEW025 29/25 Q1013 NOSIG

Hora: 10:45 (14:45 UTC)

Pronòstic

L'informe es va fer fa 3 hores i 45 minuts, a les 11:00 UTC
Pronòstic vàlid del 13 a les 12 UTC al 14 a les 12 UTC
Vent 7 kt del Est
Visibilitat 10 km o més
Núvols disperses a una alçada de 2400 ft
Temporalment
l' 14 a les 06 UTC al 14 a les 12 UTC
Visibilitat: 5000 m
Escasses núvols a una alçada de 1500 ft, Cumulus congestus.
Cel ennuvolat a una alçada de 1800 ft
xàfecs de pluja

TAF: TLPC 131100Z 1312/1412 09007KT 9999 SCT024 TEMPO 1406/1412 5000 SHRA FEW015TCU BKN018

Observacions i pronòstics meteorològics de més de 4000 aeroports (METAR i TAF).

Les estacions disponibles són els punts grocs i vermells al mapa.

Posi el ratolí al punt desitjat per veure el nom de l'estació.

Feu clic per veure les observacions i els pronòstics meteorològics.

Per canviar el mapa: feu clic els botons verds amb una creu de color negre per apropar; al botó verd amb un guió per allunyar la imatge; o en les fletxes verdes per a mapes adjacents.


METAR-TAF: